Time;durP1;ratioP1;P1;durP2;ratioP2;P2;SDS_P1;SDS_P2;PMS_P1;PMS_P2;Temp;Humidity;BMP_temperature;BMP_pressure;BME280_temperature;BME280_humidity;BME280_pressure;Samples;Min_cycle;Max_cycle;Signal;HPM_P1;HPM_P2
2022/01/07 00:02:17;;;;;;;;;;;19.80;58.30;;;;;;5052126;28;1133;-73
2022/01/07 00:04:43;;;;;;;;;;;19.80;58.30;;;;;;5032322;28;1277;-73
2022/01/07 00:07:09;;;;;;;;;;;19.80;58.40;;;;;;5034400;28;1075;-73
2022/01/07 00:09:36;;;;;;;;;;;19.80;58.30;;;;;;5040498;28;1146;-73
2022/01/07 00:12:02;;;;;;;;;;;19.80;58.40;;;;;;5041560;28;1110;-73
2022/01/07 00:14:28;;;;;;;;;;;19.80;58.40;;;;;;5037599;28;1959;-72
2022/01/07 00:16:53;;;;;;;;;;;19.70;58.30;;;;;;5034573;28;1344;-73
2022/01/07 00:19:19;;;;;;;;;;;19.70;58.40;;;;;;5036082;28;1295;-73
2022/01/07 00:21:45;;;;;;;;;;;19.70;59.00;;;;;;5035334;28;1270;-72
2022/01/07 00:24:10;;;;;;;;;;;19.70;58.40;;;;;;5034810;28;1375;-72
2022/01/07 00:26:35;;;;;;;;;;;19.70;58.40;;;;;;5034263;28;1244;-73
2022/01/07 00:29:01;;;;;;;;;;;19.70;58.40;;;;;;5035664;28;1372;-73
2022/01/07 00:31:27;;;;;;;;;;;19.70;58.40;;;;;;5034461;28;1048;-73
2022/01/07 00:33:52;;;;;;;;;;;19.70;58.40;;;;;;5034534;28;1973;-72
2022/01/07 00:36:17;;;;;;;;;;;19.70;58.50;;;;;;5035632;28;1387;-73
2022/01/07 00:38:43;;;;;;;;;;;19.70;58.50;;;;;;5017132;28;1323;-72
2022/01/07 00:41:08;;;;;;;;;;;19.70;58.50;;;;;;5034047;28;1367;-73
2022/01/07 00:43:34;;;;;;;;;;;19.70;58.50;;;;;;5034973;28;1414;-73
2022/01/07 00:45:59;;;;;;;;;;;19.70;58.50;;;;;;5047030;28;1133;-73
2022/01/07 00:48:25;;;;;;;;;;;19.70;58.50;;;;;;5041787;28;1098;-73
2022/01/07 00:50:50;;;;;;;;;;;19.70;58.50;;;;;;5055646;28;1265;-73
2022/01/07 00:53:15;;;;;;;;;;;19.70;58.60;;;;;;5034965;28;1280;-73
2022/01/07 00:55:41;;;;;;;;;;;19.70;58.60;;;;;;5033800;28;1894;-73
2022/01/07 00:58:06;;;;;;;;;;;19.70;58.60;;;;;;5035187;28;1301;-73
2022/01/07 01:00:32;;;;;;;;;;;19.70;58.60;;;;;;5034938;28;1400;-73
2022/01/07 01:02:59;;;;;;;;;;;19.70;58.60;;;;;;5037958;28;1379;-73
2022/01/07 01:05:24;;;;;;;;;;;19.70;58.60;;;;;;5054546;28;1285;-73
2022/01/07 01:07:50;;;;;;;;;;;19.60;58.60;;;;;;5055129;28;1289;-73
2022/01/07 01:10:16;;;;;;;;;;;19.60;58.50;;;;;;5043541;28;1079;-73
2022/01/07 01:12:41;;;;;;;;;;;19.70;58.60;;;;;;5033540;28;1290;-73
2022/01/07 01:15:07;;;;;;;;;;;19.60;58.60;;;;;;5044396;28;1984;-73
2022/01/07 01:17:33;;;;;;;;;;;19.60;58.60;;;;;;5036143;28;1306;-73
2022/01/07 01:19:59;;;;;;;;;;;19.60;58.60;;;;;;5034886;28;1053;-73
2022/01/07 01:22:25;;;;;;;;;;;19.60;58.60;;;;;;5033387;28;1286;-73
2022/01/07 01:24:50;;;;;;;;;;;19.60;58.70;;;;;;5043487;28;1265;-73
2022/01/07 01:27:15;;;;;;;;;;;19.60;58.60;;;;;;5035108;28;1386;-73
2022/01/07 01:29:41;;;;;;;;;;;19.60;58.60;;;;;;5033410;28;1429;-73
2022/01/07 01:32:06;;;;;;;;;;;19.60;58.70;;;;;;5046701;28;1158;-72
2022/01/07 01:34:32;;;;;;;;;;;19.60;58.70;;;;;;5033897;28;1902;-73
2022/01/07 01:36:57;;;;;;;;;;;19.60;58.70;;;;;;5034053;28;1394;-73
2022/01/07 01:39:23;;;;;;;;;;;19.60;58.70;;;;;;5034154;28;1280;-73
2022/01/07 01:41:48;;;;;;;;;;;19.60;58.70;;;;;;5034336;28;1420;-73
2022/01/07 01:44:14;;;;;;;;;;;19.60;58.70;;;;;;5033301;28;1202;-73
2022/01/07 01:46:39;;;;;;;;;;;19.60;58.70;;;;;;5048171;28;1170;-73
2022/01/07 01:49:05;;;;;;;;;;;19.60;58.70;;;;;;5034298;28;1306;-73
2022/01/07 01:51:30;;;;;;;;;;;19.60;58.70;;;;;;5034005;28;1226;-73
2022/01/07 01:53:55;;;;;;;;;;;19.60;58.80;;;;;;5032455;28;1898;-75
2022/01/07 01:56:21;;;;;;;;;;;19.60;58.80;;;;;;5046329;28;1127;-75
2022/01/07 01:58:46;;;;;;;;;;;19.50;58.70;;;;;;5045249;28;1177;-75
2022/01/07 02:01:12;;;;;;;;;;;19.50;58.70;;;;;;5061837;28;1080;-75
2022/01/07 02:03:37;;;;;;;;;;;19.60;58.80;;;;;;5075637;28;1458;-76
2022/01/07 02:06:03;;;;;;;;;;;19.50;58.70;;;;;;5059064;28;1191;-77
2022/01/07 02:08:29;;;;;;;;;;;19.50;58.70;;;;;;5062978;28;1225;-76
2022/01/07 02:10:55;;;;;;;;;;;19.50;58.70;;;;;;5060750;28;1175;-76
2022/01/07 02:13:20;;;;;;;;;;;19.60;58.80;;;;;;5077910;28;1294;-76
2022/01/07 02:15:45;;;;;;;;;;;19.50;58.80;;;;;;5077485;28;1906;-77
2022/01/07 02:18:11;;;;;;;;;;;19.60;58.90;;;;;;5063857;28;1203;-73
2022/01/07 02:20:36;;;;;;;;;;;19.50;58.80;;;;;;5061754;28;1227;-73
2022/01/07 02:23:02;;;;;;;;;;;19.50;58.80;;;;;;5055924;28;1414;-73
2022/01/07 02:25:27;;;;;;;;;;;19.50;58.80;;;;;;5040055;28;1388;-74
2022/01/07 02:27:53;;;;;;;;;;;19.50;58.80;;;;;;5042021;28;1060;-74
2022/01/07 02:30:19;;;;;;;;;;;19.50;58.80;;;;;;5036058;28;1188;-74
2022/01/07 02:32:45;;;;;;;;;;;19.50;58.80;;;;;;5033824;28;1268;-74
2022/01/07 02:35:10;;;;;;;;;;;19.50;58.80;;;;;;5031275;28;1997;-74
2022/01/07 02:37:36;;;;;;;;;;;19.50;58.80;;;;;;5041801;28;1123;-74
2022/01/07 02:40:02;;;;;;;;;;;19.60;58.80;;;;;;5039673;28;1426;-74
2022/01/07 02:42:28;;;;;;;;;;;19.50;58.80;;;;;;5052225;28;1106;-74
2022/01/07 02:44:53;;;;;;;;;;;19.60;58.80;;;;;;5053125;28;1401;-74
2022/01/07 02:47:21;;;;;;;;;;;19.60;58.80;;;;;;5042443;28;879;-74
2022/01/07 02:49:46;;;;;;;;;;;19.60;58.80;;;;;;5033151;28;1269;-74
2022/01/07 02:52:12;;;;;;;;;;;19.50;58.80;;;;;;5033277;28;1082;-74
2022/01/07 02:54:37;;;;;;;;;;;19.50;58.70;;;;;;5029813;28;1898;-74
2022/01/07 02:57:02;;;;;;;;;;;19.50;58.70;;;;;;5052747;28;1058;-74
2022/01/07 02:59:28;;;;;;;;;;;19.60;58.70;;;;;;5051454;28;1382;-74
2022/01/07 03:01:54;;;;;;;;;;;19.60;58.70;;;;;;5052741;28;1169;-73
2022/01/07 03:04:19;;;;;;;;;;;19.60;58.70;;;;;;5035278;28;1358;-74
2022/01/07 03:06:45;;;;;;;;;;;19.60;58.70;;;;;;5032296;28;1015;-75
2022/01/07 03:09:10;;;;;;;;;;;19.60;58.60;;;;;;5037666;28;1324;-74
2022/01/07 03:11:35;;;;;;;;;;;19.60;58.60;;;;;;5031071;28;1072;-74
2022/01/07 03:14:01;;;;;;;;;;;19.60;58.60;;;;;;5033279;28;1894;-74
2022/01/07 03:16:26;;;;;;;;;;;19.60;58.60;;;;;;5025335;28;1370;-74
2022/01/07 03:18:52;;;;;;;;;;;19.60;58.60;;;;;;5031477;28;1099;-74
2022/01/07 03:21:17;;;;;;;;;;;19.60;58.60;;;;;;5030940;28;1068;-73
2022/01/07 03:23:43;;;;;;;;;;;19.50;58.60;;;;;;5031933;28;1273;-72
2022/01/07 03:26:08;;;;;;;;;;;19.60;58.60;;;;;;5032550;28;1327;-72
2022/01/07 03:28:34;;;;;;;;;;;19.60;58.70;;;;;;5032477;28;1138;-73
2022/01/07 03:30:59;;;;;;;;;;;19.50;58.60;;;;;;5032338;28;1268;-73
2022/01/07 03:33:25;;;;;;;;;;;19.50;58.60;;;;;;5030309;28;1283;-73
2022/01/07 03:35:50;;;;;;;;;;;19.50;58.70;;;;;;5031157;28;1910;-73
2022/01/07 03:38:16;;;;;;;;;;;19.50;58.70;;;;;;5032509;28;1367;-73
2022/01/07 03:40:41;;;;;;;;;;;19.50;58.70;;;;;;5032027;28;1093;-73
2022/01/07 03:43:07;;;;;;;;;;;19.50;58.60;;;;;;5031516;28;1205;-73
2022/01/07 03:45:32;;;;;;;;;;;19.60;58.70;;;;;;5032301;28;1055;-73
2022/01/07 03:47:58;;;;;;;;;;;19.60;58.70;;;;;;5032390;28;1280;-73
2022/01/07 03:50:25;;;;;;;;;;;19.50;58.70;;;;;;5030855;28;1548;-72
2022/01/07 03:52:50;;;;;;;;;;;19.50;58.70;;;;;;5033413;28;1271;-73
2022/01/07 03:55:16;;;;;;;;;;;19.50;58.70;;;;;;5031764;28;1974;-73
2022/01/07 03:57:42;;;;;;;;;;;19.50;58.70;;;;;;5031818;28;1131;-73
2022/01/07 04:00:08;;;;;;;;;;;19.50;58.70;;;;;;5031131;28;1047;-74
2022/01/07 04:02:34;;;;;;;;;;;19.50;58.80;;;;;;5032579;28;1198;-73
2022/01/07 04:04:59;;;;;;;;;;;19.50;58.80;;;;;;5051230;28;1320;-74
2022/01/07 04:07:25;;;;;;;;;;;19.50;58.80;;;;;;5052254;28;1251;-73
2022/01/07 04:09:50;;;;;;;;;;;19.50;58.80;;;;;;5043035;28;1496;-73
2022/01/07 04:12:15;;;;;;;;;;;19.50;58.80;;;;;;5046368;28;1048;-74
2022/01/07 04:14:41;;;;;;;;;;;19.50;58.80;;;;;;5051392;28;1971;-73
2022/01/07 04:17:07;;;;;;;;;;;19.50;58.80;;;;;;5037403;28;1309;-74
2022/01/07 04:19:33;;;;;;;;;;;19.50;58.80;;;;;;5031773;28;1247;-74
2022/01/07 04:21:58;;;;;;;;;;;19.50;58.90;;;;;;5032039;28;1387;-74
2022/01/07 04:24:24;;;;;;;;;;;19.50;58.90;;;;;;5040016;28;1198;-74
2022/01/07 04:26:49;;;;;;;;;;;19.40;58.80;;;;;;5037284;28;1153;-74
2022/01/07 04:29:15;;;;;;;;;;;19.50;58.90;;;;;;5038710;28;1111;-74
2022/01/07 04:31:40;;;;;;;;;;;19.40;58.90;;;;;;5037936;28;1047;-74
2022/01/07 04:34:05;;;;;;;;;;;19.50;58.90;;;;;;5043201;28;1983;-74
2022/01/07 04:36:31;;;;;;;;;;;19.40;58.90;;;;;;5030767;28;1154;-72
2022/01/07 04:38:56;;;;;;;;;;;19.40;58.90;;;;;;5031707;28;1383;-72
2022/01/07 04:41:22;;;;;;;;;;;19.40;58.90;;;;;;5031507;28;1384;-73
2022/01/07 04:43:48;;;;;;;;;;;19.40;58.90;;;;;;5030148;28;1322;-72
2022/01/07 04:46:14;;;;;;;;;;;19.40;58.90;;;;;;5045462;28;1130;-72
2022/01/07 04:48:39;;;;;;;;;;;19.40;58.90;;;;;;5038451;28;1266;-72
2022/01/07 04:51:05;;;;;;;;;;;19.40;59.00;;;;;;5037157;28;1086;-71
2022/01/07 04:53:30;;;;;;;;;;;19.40;59.00;;;;;;5032157;28;1894;-71
2022/01/07 04:55:58;;;;;;;;;;;19.40;59.00;;;;;;5035386;28;1333;-73
2022/01/07 04:58:24;;;;;;;;;;;19.40;59.00;;;;;;5033928;28;1302;-74
2022/01/07 05:00:49;;;;;;;;;;;19.40;59.10;;;;;;5048341;28;1138;-73
2022/01/07 05:03:15;;;;;;;;;;;19.40;59.00;;;;;;5034495;28;1264;-73
2022/01/07 05:05:43;;;;;;;;;;;19.40;59.10;;;;;;5035537;28;1329;-74
2022/01/07 05:08:09;;;;;;;;;;;19.40;59.10;;;;;;5047657;28;1154;-74
2022/01/07 05:10:35;;;;;;;;;;;19.40;59.10;;;;;;5052570;28;1134;-75
2022/01/07 05:13:00;;;;;;;;;;;19.40;59.00;;;;;;5034870;28;1323;-75
2022/01/07 05:15:25;;;;;;;;;;;19.40;59.00;;;;;;5052794;28;1950;-72
2022/01/07 05:17:52;;;;;;;;;;;19.40;58.90;;;;;;5034838;28;1075;-73
2022/01/07 05:20:18;;;;;;;;;;;19.50;58.90;;;;;;5053166;28;1053;-74
2022/01/07 05:22:43;;;;;;;;;;;19.50;58.80;;;;;;5041876;28;1769;-73
2022/01/07 05:25:09;;;;;;;;;;;19.50;58.80;;;;;;5040001;28;1142;-75
2022/01/07 05:27:35;;;;;;;;;;;19.50;58.60;;;;;;5046691;28;1147;-75
2022/01/07 05:30:00;;;;;;;;;;;19.60;58.60;;;;;;5033503;28;1078;-71
2022/01/07 05:32:25;;;;;;;;;;;19.60;58.50;;;;;;5034609;28;1278;-71
2022/01/07 05:34:51;;;;;;;;;;;19.60;58.40;;;;;;5034478;28;1961;-71
2022/01/07 05:37:16;;;;;;;;;;;19.70;58.30;;;;;;5039808;28;1087;-72
2022/01/07 05:39:42;;;;;;;;;;;19.70;58.20;;;;;;5041297;28;1070;-73
2022/01/07 05:42:07;;;;;;;;;;;19.70;58.20;;;;;;5034328;28;1383;-72
2022/01/07 05:44:33;;;;;;;;;;;19.70;58.00;;;;;;5032405;28;1318;-71
2022/01/07 05:46:58;;;;;;;;;;;19.80;58.00;;;;;;5032903;28;1306;-75
2022/01/07 05:49:24;;;;;;;;;;;19.80;57.90;;;;;;5046467;28;1178;-73
2022/01/07 05:51:49;;;;;;;;;;;19.80;57.80;;;;;;5039295;28;1222;-73
2022/01/07 05:54:15;;;;;;;;;;;19.90;57.80;;;;;;5041303;28;1902;-73
2022/01/07 05:56:40;;;;;;;;;;;19.90;57.70;;;;;;5047316;28;1083;-74
2022/01/07 05:59:05;;;;;;;;;;;19.90;57.70;;;;;;5034162;28;1265;-72
2022/01/07 06:01:31;;;;;;;;;;;19.90;57.60;;;;;;5037413;28;1846;-71
2022/01/07 06:03:56;;;;;;;;;;;19.90;57.60;;;;;;5052215;28;1803;-72
2022/01/07 06:06:22;;;;;;;;;;;19.90;57.60;;;;;;5046258;28;1118;-71
2022/01/07 06:08:47;;;;;;;;;;;19.90;57.50;;;;;;5044637;28;1306;-73
2022/01/07 06:11:13;;;;;;;;;;;19.90;57.60;;;;;;5048395;28;1158;-72
2022/01/07 06:13:39;;;;;;;;;;;19.90;57.50;;;;;;5045128;28;1963;-72
2022/01/07 06:16:05;;;;;;;;;;;19.90;57.50;;;;;;5033190;28;1138;-72
2022/01/07 06:18:30;;;;;;;;;;;19.90;57.50;;;;;;5045575;28;1056;-74
2022/01/07 06:20:56;;;;;;;;;;;19.90;57.50;;;;;;5047357;28;1235;-74
2022/01/07 06:23:21;;;;;;;;;;;19.90;57.50;;;;;;5044925;28;1348;-74
2022/01/07 06:25:50;;;;;;;;;;;19.90;57.50;;;;;;5048690;28;1154;-74
2022/01/07 06:28:18;;;;;;;;;;;19.90;57.50;;;;;;5044508;28;1075;-71
2022/01/07 06:30:44;;;;;;;;;;;19.90;57.50;;;;;;5039956;28;1054;-74
2022/01/07 06:33:09;;;;;;;;;;;19.90;57.50;;;;;;5040197;28;1351;-71
2022/01/07 06:35:34;;;;;;;;;;;19.90;57.50;;;;;;5032019;28;1902;-72
2022/01/07 06:38:00;;;;;;;;;;;20.00;57.50;;;;;;5033368;28;1377;-72
2022/01/07 06:40:25;;;;;;;;;;;19.90;57.50;;;;;;5033338;28;1300;-72
2022/01/07 06:42:51;;;;;;;;;;;20.00;57.50;;;;;;5032973;28;1293;-73
2022/01/07 06:45:16;;;;;;;;;;;20.00;57.50;;;;;;5031874;28;1372;-73
2022/01/07 06:47:42;;;;;;;;;;;20.00;57.50;;;;;;5044260;28;1088;-75
2022/01/07 06:50:07;;;;;;;;;;;20.00;57.50;;;;;;5039795;28;1182;-75
2022/01/07 06:52:33;;;;;;;;;;;19.90;57.40;;;;;;5040832;28;1106;-70
2022/01/07 06:54:58;;;;;;;;;;;20.00;57.50;;;;;;5036821;28;1985;-70
2022/01/07 06:57:23;;;;;;;;;;;20.00;57.50;;;;;;5039644;28;1278;-72
2022/01/07 06:59:49;;;;;;;;;;;19.90;57.40;;;;;;5046561;28;1356;-73
2022/01/07 07:02:14;;;;;;;;;;;20.00;57.50;;;;;;5059766;28;1244;-73
2022/01/07 07:04:40;;;;;;;;;;;19.90;57.40;;;;;;5040405;28;1380;-71
2022/01/07 07:07:05;;;;;;;;;;;20.00;57.60;;;;;;5031326;28;1019;-72
2022/01/07 07:09:31;;;;;;;;;;;19.90;57.50;;;;;;5036111;28;1297;-71
2022/01/07 07:11:56;;;;;;;;;;;20.00;57.80;;;;;;5043531;28;1047;-70
2022/01/07 07:14:22;;;;;;;;;;;20.00;57.50;;;;;;5037145;28;1906;-67
2022/01/07 07:16:47;;;;;;;;;;;20.00;57.50;;;;;;5039243;28;1251;-67
2022/01/07 07:19:12;;;;;;;;;;;19.90;57.40;;;;;;5031115;28;1322;-67
2022/01/07 07:21:38;;;;;;;;;;;19.90;57.40;;;;;;5030714;28;1308;-67
2022/01/07 07:24:03;;;;;;;;;;;20.00;57.40;;;;;;5030218;28;1290;-67
2022/01/07 07:26:29;;;;;;;;;;;20.00;57.50;;;;;;5031596;28;1261;-68
2022/01/07 07:28:54;;;;;;;;;;;20.00;57.50;;;;;;5032816;28;1250;-68
2022/01/07 07:31:20;;;;;;;;;;;19.90;57.40;;;;;;5032386;28;1280;-66
2022/01/07 07:36:31;;;;;;;;;;;19.90;57.40;;;;;;5031974;28;1301;-67
2022/01/07 07:38:57;;;;;;;;;;;20.00;57.50;;;;;;5030524;28;1040;-67
2022/01/07 07:41:23;;;;;;;;;;;20.00;57.50;;;;;;5030303;28;1288;-68
2022/01/07 07:43:49;;;;;;;;;;;20.00;57.50;;;;;;5031834;28;1300;-67
2022/01/07 07:46:16;;;;;;;;;;;20.00;57.40;;;;;;5031487;28;1328;-67
2022/01/07 07:48:41;;;;;;;;;;;20.00;57.40;;;;;;5031503;28;1075;-67
2022/01/07 07:51:06;;;;;;;;;;;20.00;57.40;;;;;;5030878;28;1259;-70
2022/01/07 07:53:32;;;;;;;;;;;20.00;57.40;;;;;;5030725;28;1270;-67
2022/01/07 07:55:57;;;;;;;;;;;20.00;57.30;;;;;;5030882;28;1899;-67
2022/01/07 07:58:23;;;;;;;;;;;20.00;57.20;;;;;;5029869;28;1363;-69
2022/01/07 08:00:49;;;;;;;;;;;20.00;57.20;;;;;;5031638;28;1348;-68
2022/01/07 08:03:14;;;;;;;;;;;20.00;57.10;;;;;;5038583;28;1258;-71
2022/01/07 08:05:40;;;;;;;;;;;20.10;57.10;;;;;;5050203;28;1100;-71
2022/01/07 08:08:05;;;;;;;;;;;20.10;57.10;;;;;;5055389;28;1267;-69
2022/01/07 08:10:31;;;;;;;;;;;20.10;57.10;;;;;;5036043;28;1193;-72
2022/01/07 08:18:16;;;;;;;;;;;20.10;57.10;;;;;;5030387;28;1361;-72
2022/01/07 08:20:41;;;;;;;;;;;20.10;57.00;;;;;;5029504;28;1314;-70
2022/01/07 08:23:07;;;;;;;;;;;20.10;57.10;;;;;;5028676;28;1289;-70
2022/01/07 08:25:32;;;;;;;;;;;20.20;57.10;;;;;;5030898;28;1309;-72
2022/01/07 08:28:02;;;;;;;;;;;20.30;57.00;;;;;;5031818;28;1437;-72
2022/01/07 08:30:35;;;;;;;;;;;20.30;56.90;;;;;;5034710;28;1407;-75
2022/01/07 08:35:44;;;;;;;;;;;20.60;56.60;;;;;;5035656;28;1898;-76
2022/01/07 08:38:10;;;;;;;;;;;20.70;56.30;;;;;;5047575;28;1150;-77
2022/01/07 08:40:35;;;;;;;;;;;20.90;56.10;;;;;;5042639;28;1397;-77
2022/01/07 08:43:01;;;;;;;;;;;20.90;55.80;;;;;;5053853;28;1657;-75
2022/01/07 08:45:26;;;;;;;;;;;21.10;55.60;;;;;;5034533;28;1132;-78
2022/01/07 08:47:51;;;;;;;;;;;21.10;55.30;;;;;;5028022;28;1127;-78
2022/01/07 08:50:17;;;;;;;;;;;21.20;55.10;;;;;;5048162;28;1157;-76
2022/01/07 08:52:42;;;;;;;;;;;21.30;54.90;;;;;;5049048;28;1680;-76
2022/01/07 08:55:08;;;;;;;;;;;21.40;55.30;;;;;;5042163;28;1941;-77
2022/01/07 08:57:33;;;;;;;;;;;21.50;54.60;;;;;;5042595;28;1079;-77
2022/01/07 09:00:00;;;;;;;;;;;21.50;54.30;;;;;;5054131;28;1293;-77
2022/01/07 09:02:25;;;;;;;;;;;21.60;54.20;;;;;;5035094;28;1228;-76
2022/01/07 09:04:50;;;;;;;;;;;21.60;54.10;;;;;;5053234;28;1184;-77
2022/01/07 09:07:16;;;;;;;;;;;21.70;54.10;;;;;;5041953;28;1122;-74
2022/01/07 09:09:41;;;;;;;;;;;21.70;54.00;;;;;;5039700;28;1387;-75
2022/01/07 09:12:07;;;;;;;;;;;21.70;53.90;;;;;;5035343;28;1240;-75
2022/01/07 09:14:33;;;;;;;;;;;21.80;53.90;;;;;;5036116;28;1898;-75
2022/01/07 09:16:58;;;;;;;;;;;21.80;53.90;;;;;;5040997;28;1277;-74
2022/01/07 09:19:25;;;;;;;;;;;21.80;53.90;;;;;;5033288;28;1330;-76
2022/01/07 09:21:51;;;;;;;;;;;21.80;54.00;;;;;;5033495;28;1144;-72
2022/01/07 09:24:17;;;;;;;;;;;21.80;54.00;;;;;;5034761;28;1332;-75
2022/01/07 09:26:42;;;;;;;;;;;21.80;54.00;;;;;;5046103;28;1080;-75
2022/01/07 09:29:07;;;;;;;;;;;21.80;54.10;;;;;;5053741;28;1163;-75
2022/01/07 09:31:33;;;;;;;;;;;21.80;54.00;;;;;;5062152;28;1424;-76
2022/01/07 09:33:59;;;;;;;;;;;21.80;54.00;;;;;;5069124;28;1981;-75
2022/01/07 09:36:24;;;;;;;;;;;21.80;54.00;;;;;;5050587;28;1319;-75
2022/01/07 09:38:50;;;;;;;;;;;21.80;54.00;;;;;;5051016;28;1708;-75
2022/01/07 09:41:15;;;;;;;;;;;21.70;54.00;;;;;;5054299;28;1059;-76
2022/01/07 09:43:44;;;;;;;;;;;21.70;54.00;;;;;;5052377;28;1221;-76
2022/01/07 09:46:13;;;;;;;;;;;21.70;54.00;;;;;;5041998;28;1290;-76
2022/01/07 09:48:38;;;;;;;;;;;21.70;54.10;;;;;;5034451;28;1459;-76
2022/01/07 09:51:04;;;;;;;;;;;21.70;54.10;;;;;;5028899;28;1040;-76
2022/01/07 09:53:29;;;;;;;;;;;21.70;54.10;;;;;;5034552;28;1290;-74
2022/01/07 09:55:54;;;;;;;;;;;21.60;54.10;;;;;;5052349;28;1982;-74
2022/01/07 09:58:20;;;;;;;;;;;21.70;54.20;;;;;;5048130;28;1090;-74
2022/01/07 10:00:45;;;;;;;;;;;21.60;54.20;;;;;;5039314;28;1179;-74
2022/01/07 10:03:11;;;;;;;;;;;21.60;54.30;;;;;;5050866;28;1393;-74
2022/01/07 10:05:48;;;;;;;;;;;21.60;54.40;;;;;;5044086;28;1957;-74
2022/01/07 10:08:21;;;;;;;;;;;21.60;54.40;;;;;;5046427;28;1216;-74
2022/01/07 10:10:47;;;;;;;;;;;21.50;54.40;;;;;;5046707;28;1287;-73
2022/01/07 10:13:12;;;;;;;;;;;21.50;54.50;;;;;;5033516;28;2031;-74
2022/01/07 10:15:38;;;;;;;;;;;21.50;54.60;;;;;;5047505;28;2001;-72
2022/01/07 10:18:07;;;;;;;;;;;21.50;54.70;;;;;;5062070;28;1244;-73
2022/01/07 10:20:34;;;;;;;;;;;21.40;54.70;;;;;;5061526;28;1131;-74
2022/01/07 10:23:13;;;;;;;;;;;21.40;54.70;;;;;;5060593;28;1294;-74
2022/01/07 10:25:40;;;;;;;;;;;21.40;54.80;;;;;;5083510;22;3584;-69
2022/01/07 10:28:09;;;;;;;;;;;21.30;54.80;;;;;;5064824;28;1145;-70
2022/01/07 10:30:41;;;;;;;;;;;21.30;54.90;;;;;;5065465;28;1361;-70
2022/01/07 10:33:23;;;;;;;;;;;21.30;54.90;;;;;;5072759;28;1188;-71
2022/01/07 10:35:49;;;;;;;;;;;21.30;55.00;;;;;;5041213;28;1906;-72
2022/01/07 10:38:16;;;;;;;;;;;21.30;55.00;;;;;;5053703;28;1371;-73
2022/01/07 10:40:42;;;;;;;;;;;21.30;55.10;;;;;;5050007;28;1408;-72
2022/01/07 10:43:15;;;;;;;;;;;21.20;55.10;;;;;;5052846;28;1688;-72
2022/01/07 10:45:41;;;;;;;;;;;21.20;55.10;;;;;;5049306;28;1869;-72
2022/01/07 10:48:07;;;;;;;;;;;21.20;55.10;;;;;;5050303;28;1999;-72
2022/01/07 10:50:34;;;;;;;;;;;21.20;55.20;;;;;;5042011;28;1420;-71
2022/01/07 10:53:15;;;;;;;;;;;21.20;55.20;;;;;;5042719;28;1434;-71
2022/01/07 10:55:40;;;;;;;;;;;21.20;55.20;;;;;;5046463;28;1895;-71
2022/01/07 10:58:06;;;;;;;;;;;21.10;55.30;;;;;;5051964;28;1417;-70
2022/01/07 11:00:35;;;;;;;;;;;21.10;55.30;;;;;;5051781;28;1262;-72
2022/01/07 11:03:01;;;;;;;;;;;21.10;55.30;;;;;;5047955;28;1875;-72
2022/01/07 11:05:26;;;;;;;;;;;21.10;55.40;;;;;;5051659;28;1675;-71
2022/01/07 11:07:52;;;;;;;;;;;21.10;55.40;;;;;;5053030;28;1677;-72
2022/01/07 11:10:17;;;;;;;;;;;21.10;55.40;;;;;;5051166;28;1397;-71
2022/01/07 11:12:42;;;;;;;;;;;21.10;55.40;;;;;;5050205;28;1717;-71
2022/01/07 11:15:10;;;;;;;;;;;21.10;55.50;;;;;;5050196;28;3032;-72
2022/01/07 11:17:36;;;;;;;;;;;21.10;55.50;;;;;;5050477;28;1631;-72
2022/01/07 11:20:02;;;;;;;;;;;21.10;55.60;;;;;;5051792;28;1366;-73
2022/01/07 11:22:28;;;;;;;;;;;21.00;55.50;;;;;;5057911;28;1329;-72
2022/01/07 11:24:56;;;;;;;;;;;21.00;55.50;;;;;;5049940;28;1799;-73
2022/01/07 11:27:23;;;;;;;;;;;21.00;56.20;;;;;;5052015;28;1625;-72
2022/01/07 11:29:48;;;;;;;;;;;21.00;55.60;;;;;;5051078;28;1598;-72
2022/01/07 11:32:26;;;;;;;;;;;21.00;55.60;;;;;;5051055;28;1612;-72
2022/01/07 11:34:51;;;;;;;;;;;21.00;55.70;;;;;;5050775;28;1979;-72
2022/01/07 11:37:36;;;;;;;;;;;21.00;55.70;;;;;;5051624;28;1357;-72
2022/01/07 11:40:02;;;;;;;;;;;21.00;55.70;;;;;;5051638;28;1648;-72
2022/01/07 11:42:40;;;;;;;;;;;21.00;55.70;;;;;;5051622;28;1352;-71
2022/01/07 11:45:28;;;;;;;;;;;21.00;55.70;;;;;;5049913;28;1657;-72
2022/01/07 11:47:57;;;;;;;;;;;21.10;55.60;;;;;;5051131;28;1331;-72
2022/01/07 11:50:23;;;;;;;;;;;21.10;55.60;;;;;;5051864;28;1634;-72
2022/01/07 11:52:55;;;;;;;;;;;21.10;55.50;;;;;;5050640;28;1434;-71
2022/01/07 11:55:24;;;;;;;;;;;21.20;55.50;;;;;;5051458;28;1890;-72
2022/01/07 11:57:50;;;;;;;;;;;21.20;55.40;;;;;;5051231;28;1571;-71
2022/01/07 12:00:35;;;;;;;;;;;21.20;55.30;;;;;;5030498;28;1355;-72
2022/01/07 12:03:01;;;;;;;;;;;21.20;55.20;;;;;;5052426;28;1586;-70
2022/01/07 12:05:30;;;;;;;;;;;21.30;55.10;;;;;;5039017;28;1291;-72
2022/01/07 12:07:55;;;;;;;;;;;21.30;55.10;;;;;;5055065;28;802;-69
2022/01/07 12:10:21;;;;;;;;;;;21.30;55.00;;;;;;5055102;28;814;-71
2022/01/07 12:12:46;;;;;;;;;;;21.30;54.90;;;;;;5056471;28;780;-70
2022/01/07 12:15:12;;;;;;;;;;;21.40;55.00;;;;;;5056085;28;1894;-70
2022/01/07 12:17:37;;;;;;;;;;;21.40;54.90;;;;;;5053507;28;870;-71
2022/01/07 12:20:21;;;;;;;;;;;21.30;54.90;;;;;;5044700;28;1025;-71
2022/01/07 12:22:47;;;;;;;;;;;21.40;54.90;;;;;;5049517;28;1168;-70
2022/01/07 12:25:13;;;;;;;;;;;21.40;54.90;;;;;;5047021;28;1491;-68
2022/01/07 12:27:38;;;;;;;;;;;21.30;54.90;;;;;;5044420;28;1312;-71
2022/01/07 12:30:04;;;;;;;;;;;21.30;54.80;;;;;;5044877;28;1464;-69
2022/01/07 12:32:36;;;;;;;;;;;21.30;54.90;;;;;;5048888;28;1264;-68
2022/01/07 12:35:02;;;;;;;;;;;21.30;54.90;;;;;;5046547;28;1914;-68
2022/01/07 12:37:27;;;;;;;;;;;21.30;54.90;;;;;;5046807;28;1279;-70
2022/01/07 12:39:56;;;;;;;;;;;21.30;54.90;;;;;;5062825;28;1358;-70
2022/01/07 12:42:22;;;;;;;;;;;21.30;55.00;;;;;;5045725;28;1328;-71
2022/01/07 12:44:52;;;;;;;;;;;21.30;55.00;;;;;;5044114;28;1459;-71
2022/01/07 12:47:18;;;;;;;;;;;21.30;55.10;;;;;;5045355;28;1136;-69
2022/01/07 12:49:54;;;;;;;;;;;21.20;55.00;;;;;;5065014;28;1197;-68
2022/01/07 12:52:20;;;;;;;;;;;21.20;55.10;;;;;;5054656;28;1571;-68
2022/01/07 12:54:49;;;;;;;;;;;21.20;55.10;;;;;;5054787;28;1906;-68
2022/01/07 12:57:22;;;;;;;;;;;21.20;55.20;;;;;;5054539;28;1585;-68
2022/01/07 12:59:49;;;;;;;;;;;21.20;55.20;;;;;;5056210;28;1059;-69
2022/01/07 13:02:27;;;;;;;;;;;21.20;55.20;;;;;;5055559;28;1479;-69
2022/01/07 13:04:52;;;;;;;;;;;21.10;55.20;;;;;;5051107;28;1330;-68
2022/01/07 13:07:18;;;;;;;;;;;21.10;55.30;;;;;;5049707;28;895;-69
2022/01/07 13:09:43;;;;;;;;;;;21.10;55.40;;;;;;5055562;28;1055;-70
2022/01/07 13:12:08;;;;;;;;;;;21.10;55.40;;;;;;5055490;28;1012;-70
2022/01/07 13:14:34;;;;;;;;;;;21.10;55.50;;;;;;5052606;28;1902;-70
2022/01/07 13:16:59;;;;;;;;;;;21.10;55.50;;;;;;5054271;28;1498;-72
2022/01/07 13:19:25;;;;;;;;;;;21.00;55.50;;;;;;5055486;28;780;-70
2022/01/07 13:21:51;;;;;;;;;;;21.00;55.60;;;;;;5050821;28;804;-71
2022/01/07 13:24:17;;;;;;;;;;;21.10;55.60;;;;;;5053082;28;1304;-70
2022/01/07 13:26:44;;;;;;;;;;;21.00;55.60;;;;;;5055391;28;898;-70
2022/01/07 13:29:13;;;;;;;;;;;21.00;55.60;;;;;;5053999;28;831;-70
2022/01/07 13:31:40;;;;;;;;;;;21.00;55.70;;;;;;5053874;28;838;-70
2022/01/07 13:34:05;;;;;;;;;;;21.00;55.60;;;;;;5052702;28;1987;-70
2022/01/07 13:36:35;;;;;;;;;;;21.00;55.70;;;;;;5047519;28;1641;-69
2022/01/07 13:39:00;;;;;;;;;;;21.00;55.70;;;;;;5051627;28;1618;-70
2022/01/07 13:41:26;;;;;;;;;;;21.00;55.70;;;;;;5040989;28;1013;-70
2022/01/07 13:43:51;;;;;;;;;;;21.00;55.70;;;;;;5045795;28;1404;-72
2022/01/07 13:46:17;;;;;;;;;;;21.00;55.80;;;;;;5053179;28;1356;-70
2022/01/07 13:48:56;;;;;;;;;;;21.00;55.80;;;;;;5053767;28;1672;-68
2022/01/07 13:51:22;;;;;;;;;;;20.90;55.80;;;;;;5036696;28;1433;-69
2022/01/07 13:54:06;;;;;;;;;;;20.90;55.80;;;;;;5052004;28;1319;-68
2022/01/07 13:56:32;;;;;;;;;;;20.90;55.80;;;;;;5052188;28;1772;-67
2022/01/07 13:58:58;;;;;;;;;;;20.90;55.80;;;;;;5048730;28;1235;-68
2022/01/07 14:01:24;;;;;;;;;;;20.90;55.80;;;;;;5050089;28;1393;-69
2022/01/07 14:03:50;;;;;;;;;;;20.90;55.80;;;;;;5050689;28;1310;-70
2022/01/07 14:06:19;;;;;;;;;;;20.90;55.90;;;;;;5053474;28;1235;-69
2022/01/07 14:08:45;;;;;;;;;;;20.90;55.90;;;;;;5052124;28;1382;-67
2022/01/07 14:11:11;;;;;;;;;;;20.80;55.90;;;;;;5051923;28;1427;-68
2022/01/07 14:13:36;;;;;;;;;;;20.80;55.90;;;;;;5051484;28;1374;-70
2022/01/07 14:16:03;;;;;;;;;;;20.80;56.00;;;;;;5053638;28;1901;-70
2022/01/07 14:18:31;;;;;;;;;;;20.80;56.00;;;;;;5045781;28;1985;-70
2022/01/07 14:20:57;;;;;;;;;;;20.80;56.00;;;;;;5047734;28;1293;-70
2022/01/07 14:23:23;;;;;;;;;;;20.80;56.70;;;;;;5052205;28;1154;-71
2022/01/07 14:25:49;;;;;;;;;;;20.80;56.10;;;;;;5051274;28;1333;-69
2022/01/07 14:28:15;;;;;;;;;;;20.80;56.20;;;;;;5051886;28;848;-73
2022/01/07 14:30:41;;;;;;;;;;;20.70;56.10;;;;;;5052895;28;905;-69
2022/01/07 14:33:06;;;;;;;;;;;20.80;56.20;;;;;;5053718;28;862;-71
2022/01/07 14:35:32;;;;;;;;;;;20.70;56.20;;;;;;5052733;28;1917;-69
2022/01/07 14:37:57;;;;;;;;;;;20.70;56.20;;;;;;5054007;28;709;-69